This is the latest recevied weather packets stored in our database for station/object KF7SOJ. If no packets are shown the sender has not sent any weather packets the latest 10 day(s).
| Time | Temp. | Humidity | Pressure | Rain* | Wind** | Luminosity | Snow |
|---|---|---|---|---|---|---|---|
| 1777454143 | 1.11° C | 84% | 935.2 hPa | 0 mm | - | 0 W/m² | - |
| 1777453840 | 2.22° C | 83% | 935.1 hPa | 0 mm | - | 0 W/m² | - |
| 1777453537 | 2.22° C | 83% | 935 hPa | 0 mm | - | 0 W/m² | - |
| 1777453234 | 2.22° C | 83% | 934.9 hPa | 0 mm | - | 0 W/m² | - |
| 1777452931 | 2.22° C | 83% | 934.9 hPa | 0 mm | - | 0 W/m² | - |
| 1777452020 | 2.22° C | 83% | 935 hPa | 0 mm | - | 0 W/m² | - |
| 1777451715 | 2.22° C | 82% | 934.9 hPa | 0 mm | - | 0 W/m² | - |
| 1777451411 | 2.22° C | 83% | 934.9 hPa | 0 mm | - | 0 W/m² | - |
| 1777451107 | 1.67° C | 85% | 935.2 hPa | 0 mm | - | 0 W/m² | - |
| 1777450803 | 2.22° C | 82% | 935.2 hPa | 0 mm | - | 0 W/m² | - |
| 1777450498 | 2.78° C | 83% | 935.2 hPa | 0 mm | - | 0 W/m² | - |
| 1777450195 | 2.22° C | 85% | 935.3 hPa | 0 mm | - | 0 W/m² | - |
| 1777449892 | 1.67° C | 85% | 935.2 hPa | 0 mm | - | 0 W/m² | - |
| 1777449588 | 2.22° C | 84% | 935.2 hPa | 0 mm | - | 0 W/m² | - |
| 1777449283 | 2.22° C | 83% | 935.2 hPa | 0 mm | - | 0 W/m² | - |
| 1777448979 | 2.78° C | 82% | 935.1 hPa | 0 mm | - | 0 W/m² | - |
| 1777448373 | 2.78° C | 81% | 935.2 hPa | 0 mm | - | 0 W/m² | - |
| 1777448070 | 2.78° C | 81% | 935.1 hPa | 0 mm | - | 0 W/m² | - |
| 1777447765 | 2.78° C | 82% | 935.1 hPa | 0 mm | - | 0 W/m² | - |
| 1777447461 | 2.78° C | 81% | 935.1 hPa | 0 mm | - | 0 W/m² | - |
| 1777447158 | 3.33° C | 80% | 935.2 hPa | 0 mm | - | 0 W/m² | - |
| 1777446857 | 3.89° C | 79% | 935.2 hPa | 0 mm | - | 0 W/m² | - |
| 1777446553 | 3.33° C | 81% | 935.2 hPa | 0 mm | - | 0 W/m² | - |
| 1777446249 | 2.78° C | 82% | 935.2 hPa | 0 mm | - | 0 W/m² | - |
| 1777445947 | 3.33° C | 80% | 935.2 hPa | 0 mm | - | 0 W/m² | - |
* Rain latest hour (hover to see other rain measurements)
** Current wind speed in m/s (hover to see current wind gust speed)